createdAt,value
2018-10-03T00:00:12.519Z,1012.35
2018-10-03T00:01:13.195Z,1012.31
2018-10-03T00:02:13.856Z,1012.30
2018-10-03T00:03:14.529Z,1012.31
2018-10-03T00:04:15.193Z,1012.35
2018-10-03T00:05:15.861Z,1012.36
2018-10-03T00:06:16.526Z,1012.36
2018-10-03T00:07:17.195Z,1012.39
2018-10-03T00:08:17.855Z,1012.39
2018-10-03T00:09:18.520Z,1012.43
2018-10-03T00:10:19.189Z,1012.44
2018-10-03T00:11:19.848Z,1012.46
2018-10-03T00:12:20.511Z,1012.51
2018-10-03T00:13:21.182Z,1012.56
2018-10-03T00:14:21.843Z,1012.55
2018-10-03T00:15:22.522Z,1012.58
2018-10-03T00:16:23.176Z,1012.57
2018-10-03T00:17:23.843Z,1012.61
2018-10-03T00:18:24.520Z,1012.62
2018-10-03T00:19:25.179Z,1012.61
2018-10-03T00:20:25.847Z,1012.61
2018-10-03T00:21:26.515Z,1012.61
2018-10-03T00:22:27.181Z,1012.59
2018-10-03T00:23:27.929Z,1012.61
2018-10-03T00:24:28.513Z,1012.58
2018-10-03T00:25:29.174Z,1012.61
2018-10-03T00:26:29.840Z,1012.63
2018-10-03T00:27:30.508Z,1012.61
2018-10-03T00:28:31.176Z,1012.63
2018-10-03T00:29:31.847Z,1012.69
2018-10-03T00:30:32.516Z,1012.69
2018-10-03T00:31:33.180Z,1012.70
2018-10-03T00:32:33.849Z,1012.72
2018-10-03T00:33:34.524Z,1012.72
2018-10-03T00:34:35.184Z,1012.70
2018-10-03T00:35:35.858Z,1012.73
2018-10-03T00:36:36.519Z,1012.70
2018-10-03T00:37:37.202Z,1012.66
2018-10-03T00:38:37.855Z,1012.64
2018-10-03T00:39:38.522Z,1012.61
2018-10-03T00:40:39.197Z,1012.58
2018-10-03T00:41:39.832Z,1012.61
2018-10-03T00:42:40.493Z,1012.59
2018-10-03T00:43:41.160Z,1012.60
2018-10-03T00:44:41.843Z,1012.56
2018-10-03T00:45:42.508Z,1012.60
2018-10-03T00:46:43.191Z,1012.58
2018-10-03T00:47:43.849Z,1012.63
2018-10-03T00:48:44.515Z,1012.65
2018-10-03T00:49:45.409Z,1012.63
2018-10-03T00:50:46.073Z,1012.61
2018-10-03T00:51:46.753Z,1012.63
2018-10-03T00:52:47.400Z,1012.63
2018-10-03T00:53:48.076Z,1012.60
2018-10-03T00:54:48.733Z,1012.62
2018-10-03T00:55:49.394Z,1012.60
2018-10-03T00:56:50.056Z,1012.64
2018-10-03T00:57:50.736Z,1012.66
2018-10-03T00:58:51.416Z,1012.62
2018-10-03T00:59:52.082Z,1012.59
2018-10-03T01:00:52.753Z,1012.62
2018-10-03T01:01:53.415Z,1012.60
2018-10-03T01:02:54.077Z,1012.66
2018-10-03T01:03:54.741Z,1012.63
2018-10-03T01:04:55.405Z,1012.58
2018-10-03T01:05:56.073Z,1012.61
2018-10-03T01:06:56.735Z,1012.65
2018-10-03T01:07:57.402Z,1012.66
2018-10-03T01:08:58.067Z,1012.62
2018-10-03T01:09:58.732Z,1012.66
2018-10-03T01:10:59.406Z,1012.65
2018-10-03T01:12:00.065Z,1012.66
2018-10-03T01:13:00.727Z,1012.71
2018-10-03T01:14:01.401Z,1012.67
2018-10-03T01:15:02.063Z,1012.69
2018-10-03T01:16:02.721Z,1012.77
2018-10-03T01:17:03.389Z,1012.74
2018-10-03T01:18:04.056Z,1012.75
2018-10-03T01:19:04.722Z,1012.75
2018-10-03T01:20:05.384Z,1012.78
2018-10-03T01:21:06.065Z,1012.77
2018-10-03T01:22:06.713Z,1012.76
2018-10-03T01:23:07.379Z,1012.79
2018-10-03T01:24:08.045Z,1012.73
2018-10-03T01:25:08.711Z,1012.75
2018-10-03T01:26:09.377Z,1012.78
2018-10-03T01:27:10.038Z,1012.79
2018-10-03T01:28:10.705Z,1012.79
2018-10-03T01:29:11.372Z,1012.78
2018-10-03T01:30:12.039Z,1012.76
2018-10-03T01:31:12.714Z,1012.80
2018-10-03T01:32:13.382Z,1012.78
2018-10-03T01:33:14.046Z,1012.76
2018-10-03T01:34:14.717Z,1012.77
2018-10-03T01:35:15.384Z,1012.74
2018-10-03T01:36:16.054Z,1012.79
2018-10-03T01:37:16.724Z,1012.82
2018-10-03T01:38:17.407Z,1012.81
2018-10-03T01:39:18.055Z,1012.84
2018-10-03T01:40:18.721Z,1012.85
2018-10-03T01:41:19.385Z,1012.83
2018-10-03T01:42:20.060Z,1012.80
2018-10-03T01:43:20.734Z,1012.83
2018-10-03T01:44:21.401Z,1012.85
2018-10-03T01:45:22.068Z,1012.87
2018-10-03T01:46:22.735Z,1012.88
2018-10-03T01:47:23.333Z,1012.90
2018-10-03T01:48:23.998Z,1012.87
2018-10-03T01:49:24.674Z,1012.86
2018-10-03T01:50:25.332Z,1012.87
2018-10-03T01:51:26.001Z,1012.91
2018-10-03T01:52:26.672Z,1012.94
2018-10-03T01:53:27.330Z,1012.95
2018-10-03T01:54:27.994Z,1012.91
2018-10-03T01:55:28.663Z,1012.92
2018-10-03T01:56:29.322Z,1012.88
2018-10-03T01:57:29.990Z,1012.84
2018-10-03T01:58:30.656Z,1012.87
2018-10-03T01:59:31.318Z,1012.87
2018-10-03T02:00:31.979Z,1012.88
2018-10-03T02:01:32.645Z,1012.90
2018-10-03T02:02:33.167Z,1012.95
2018-10-03T02:03:33.834Z,1012.98
2018-10-03T02:04:34.507Z,1013.01
2018-10-03T02:05:35.164Z,1013.01
2018-10-03T02:06:35.829Z,1013.01
2018-10-03T02:07:36.493Z,1013.06
2018-10-03T02:08:37.160Z,1013.04
2018-10-03T02:09:37.823Z,1013.05
2018-10-03T02:10:38.497Z,1013.04
2018-10-03T02:11:39.163Z,1013.05
2018-10-03T02:12:39.833Z,1013.07
2018-10-03T02:13:40.497Z,1013.07
2018-10-03T02:14:41.169Z,1013.05
2018-10-03T02:15:41.829Z,1013.06
2018-10-03T02:16:42.496Z,1013.08
2018-10-03T02:17:43.173Z,1013.09
2018-10-03T02:18:43.834Z,1013.10
2018-10-03T02:19:44.501Z,1013.06
2018-10-03T02:20:45.198Z,1013.04
2018-10-03T02:21:45.848Z,1013.05
2018-10-03T02:22:46.511Z,1013.10
2018-10-03T02:23:47.176Z,1013.07
2018-10-03T02:24:47.848Z,1013.10
2018-10-03T02:25:48.507Z,1013.09
2018-10-03T02:26:49.171Z,1013.12
2018-10-03T02:27:49.836Z,1013.12
2018-10-03T02:28:50.518Z,1013.13
2018-10-03T02:29:51.178Z,1013.18
2018-10-03T02:30:51.851Z,1013.18
2018-10-03T02:31:52.513Z,1013.23
2018-10-03T02:32:53.177Z,1013.17
2018-10-03T02:33:53.853Z,1013.19
2018-10-03T02:34:54.515Z,1013.19
2018-10-03T02:35:55.175Z,1013.19
2018-10-03T02:36:55.850Z,1013.22
2018-10-03T02:37:56.510Z,1013.21
2018-10-03T02:38:57.172Z,1013.21
2018-10-03T02:39:57.847Z,1013.21
2018-10-03T02:40:58.507Z,1013.22
2018-10-03T02:41:59.178Z,1013.22
2018-10-03T02:42:59.842Z,1013.23
2018-10-03T02:44:00.507Z,1013.22
2018-10-03T02:45:01.172Z,1013.21
2018-10-03T02:46:01.839Z,1013.25
2018-10-03T02:47:02.855Z,1013.28
2018-10-03T02:48:03.516Z,1013.27
2018-10-03T02:49:04.187Z,1013.28
2018-10-03T02:50:04.856Z,1013.29
2018-10-03T02:51:05.522Z,1013.34
2018-10-03T02:52:06.187Z,1013.32
2018-10-03T02:53:06.853Z,1013.29
2018-10-03T02:54:07.523Z,1013.32
2018-10-03T02:55:08.182Z,1013.31
2018-10-03T02:56:09.125Z,1013.27
2018-10-03T02:57:09.792Z,1013.26
2018-10-03T02:58:10.459Z,1013.25
2018-10-03T02:59:11.120Z,1013.23
2018-10-03T03:00:11.786Z,1013.20
2018-10-03T03:01:12.454Z,1013.19
2018-10-03T03:02:13.114Z,1013.22
2018-10-03T03:03:13.791Z,1013.21
2018-10-03T03:04:14.455Z,1013.20
2018-10-03T03:05:15.117Z,1013.23
2018-10-03T03:06:15.789Z,1013.24
2018-10-03T03:07:16.443Z,1013.27
2018-10-03T03:08:17.115Z,1013.30
2018-10-03T03:09:17.784Z,1013.31
2018-10-03T03:10:18.443Z,1013.37
2018-10-03T03:11:19.114Z,1013.40
2018-10-03T03:12:19.781Z,1013.45
2018-10-03T03:13:20.441Z,1013.50
2018-10-03T03:14:21.107Z,1013.52
2018-10-03T03:15:21.774Z,1013.50
2018-10-03T03:16:22.452Z,1013.49
2018-10-03T03:17:23.114Z,1013.48
2018-10-03T03:18:23.788Z,1013.50
2018-10-03T03:19:24.435Z,1013.43
2018-10-03T03:20:25.105Z,1013.44
2018-10-03T03:21:25.773Z,1013.45
2018-10-03T03:22:26.435Z,1013.44
2018-10-03T03:23:27.096Z,1013.43
2018-10-03T03:24:27.769Z,1013.47
2018-10-03T03:25:28.433Z,1013.49
2018-10-03T03:26:29.101Z,1013.50
2018-10-03T03:27:29.773Z,1013.51
2018-10-03T03:28:30.434Z,1013.51
2018-10-03T03:29:31.100Z,1013.52
2018-10-03T03:30:31.767Z,1013.53
2018-10-03T03:31:32.429Z,1013.56
2018-10-03T03:32:33.099Z,1013.58
2018-10-03T03:33:33.776Z,1013.63
2018-10-03T03:34:34.430Z,1013.64
2018-10-03T03:35:35.100Z,1013.63
2018-10-03T03:36:35.772Z,1013.61
2018-10-03T03:37:36.434Z,1013.63
2018-10-03T03:38:37.096Z,1013.57
2018-10-03T03:39:37.593Z,1013.56
2018-10-03T03:40:38.262Z,1013.53
2018-10-03T03:41:38.930Z,1013.59
2018-10-03T03:42:39.583Z,1013.59
2018-10-03T03:43:40.250Z,1013.59
2018-10-03T03:44:40.913Z,1013.57
2018-10-03T03:45:41.580Z,1013.56
2018-10-03T03:46:42.243Z,1013.60
2018-10-03T03:47:42.907Z,1013.60
2018-10-03T03:48:43.690Z,1013.60
2018-10-03T03:49:44.355Z,1013.60
2018-10-03T03:50:45.030Z,1013.61
2018-10-03T03:51:45.690Z,1013.62
2018-10-03T03:52:46.353Z,1013.63
2018-10-03T03:53:47.028Z,1013.63
2018-10-03T03:54:47.688Z,1013.60
2018-10-03T03:55:48.355Z,1013.58
2018-10-03T03:56:49.015Z,1013.60
2018-10-03T03:57:49.682Z,1013.55
2018-10-03T03:58:50.348Z,1013.55
2018-10-03T03:59:51.017Z,1013.57
2018-10-03T04:00:51.682Z,1013.54
2018-10-03T04:01:52.348Z,1013.61
2018-10-03T04:02:53.010Z,1013.60
2018-10-03T04:03:53.678Z,1013.61
2018-10-03T04:04:54.339Z,1013.65
2018-10-03T04:05:55.012Z,1013.71
2018-10-03T04:06:55.675Z,1013.71
2018-10-03T04:07:56.337Z,1013.71
2018-10-03T04:08:57.006Z,1013.72
2018-10-03T04:09:57.683Z,1013.78
2018-10-03T04:10:58.741Z,1013.84
2018-10-03T04:11:59.400Z,1013.78
2018-10-03T04:13:00.064Z,1013.81
2018-10-03T04:14:00.735Z,1013.85
2018-10-03T04:15:01.398Z,1013.88
2018-10-03T04:16:02.075Z,1013.91
2018-10-03T04:17:02.735Z,1013.92
2018-10-03T04:18:03.403Z,1013.89
2018-10-03T04:19:04.074Z,1013.93
2018-10-03T04:20:04.733Z,1013.95
2018-10-03T04:21:05.295Z,1013.95
2018-10-03T04:22:05.965Z,1013.98
2018-10-03T04:23:06.629Z,1014.02
2018-10-03T04:24:07.293Z,1014.03
2018-10-03T04:25:07.957Z,1014.05
2018-10-03T04:26:08.622Z,1014.05
2018-10-03T04:27:09.293Z,1014.04
2018-10-03T04:28:09.957Z,1014.02
2018-10-03T04:29:10.622Z,1014.03
2018-10-03T04:30:11.289Z,1014.04
2018-10-03T04:31:11.954Z,1014.05
2018-10-03T04:32:12.619Z,1014.04
2018-10-03T04:33:13.290Z,1014.09
2018-10-03T04:34:13.955Z,1014.08
2018-10-03T04:35:14.620Z,1014.06
2018-10-03T04:36:15.291Z,1014.10
2018-10-03T04:37:15.955Z,1014.15
2018-10-03T04:38:16.709Z,1014.08
2018-10-03T04:39:17.373Z,1014.08
2018-10-03T04:40:18.040Z,1014.15
2018-10-03T04:41:18.698Z,1014.18
2018-10-03T04:42:19.471Z,1014.17
2018-10-03T04:43:20.031Z,1014.19
2018-10-03T04:44:20.696Z,1014.17
2018-10-03T04:45:21.366Z,1014.16
2018-10-03T04:46:22.028Z,1014.16
2018-10-03T04:47:22.711Z,1014.21
2018-10-03T04:48:23.354Z,1014.21
2018-10-03T04:49:24.023Z,1014.21
2018-10-03T04:50:24.692Z,1014.23
2018-10-03T04:51:25.353Z,1014.27
2018-10-03T04:52:26.028Z,1014.29
2018-10-03T04:53:26.686Z,1014.31
2018-10-03T04:54:27.353Z,1014.36
2018-10-03T04:55:28.017Z,1014.29
2018-10-03T04:56:28.678Z,1014.33
2018-10-03T04:57:29.285Z,1014.30
2018-10-03T04:58:29.949Z,1014.30
2018-10-03T04:59:30.613Z,1014.31
2018-10-03T05:00:31.276Z,1014.34
2018-10-03T05:01:31.945Z,1014.29
2018-10-03T05:02:32.610Z,1014.32
2018-10-03T05:03:33.280Z,1014.32
2018-10-03T05:04:33.939Z,1014.32
2018-10-03T05:05:34.614Z,1014.34
2018-10-03T05:06:35.267Z,1014.35
2018-10-03T05:07:35.933Z,1014.38
2018-10-03T05:08:36.542Z,1014.31
2018-10-03T05:09:37.211Z,1014.34
2018-10-03T05:10:37.873Z,1014.33
2018-10-03T05:11:38.544Z,1014.35
2018-10-03T05:12:39.210Z,1014.29
2018-10-03T05:13:39.867Z,1014.34
2018-10-03T05:14:40.536Z,1014.38
2018-10-03T05:15:41.206Z,1014.37
2018-10-03T05:16:41.871Z,1014.44
2018-10-03T05:17:42.533Z,1014.47
2018-10-03T05:18:43.194Z,1014.48
2018-10-03T05:19:43.859Z,1014.50
2018-10-03T05:20:44.525Z,1014.48
2018-10-03T05:21:45.189Z,1014.52
2018-10-03T05:22:45.856Z,1014.45
2018-10-03T05:23:46.522Z,1014.45
2018-10-03T05:24:47.248Z,1014.49
2018-10-03T05:25:47.845Z,1014.48
2018-10-03T05:26:48.512Z,1014.52
2018-10-03T05:27:49.187Z,1014.51
2018-10-03T05:28:49.850Z,1014.56
2018-10-03T05:29:50.510Z,1014.54
2018-10-03T05:30:51.172Z,1014.53
2018-10-03T05:31:51.838Z,1014.58
2018-10-03T05:32:52.508Z,1014.60
2018-10-03T05:33:53.178Z,1014.68
2018-10-03T05:34:53.842Z,1014.69
2018-10-03T05:35:54.512Z,1014.71
2018-10-03T05:36:55.175Z,1014.69
2018-10-03T05:37:55.849Z,1014.75
2018-10-03T05:38:56.520Z,1014.72
2018-10-03T05:39:57.183Z,1014.67
2018-10-03T05:40:57.853Z,1014.64
2018-10-03T05:41:58.526Z,1014.66
2018-10-03T05:42:59.182Z,1014.69
2018-10-03T05:43:59.851Z,1014.69
2018-10-03T05:45:00.447Z,1014.70
2018-10-03T05:46:01.114Z,1014.72
2018-10-03T05:47:01.775Z,1014.74
2018-10-03T05:48:02.444Z,1014.74
2018-10-03T05:49:03.113Z,1014.74
2018-10-03T05:50:03.773Z,1014.77
2018-10-03T05:51:04.441Z,1014.73
2018-10-03T05:52:05.104Z,1014.74
2018-10-03T05:53:05.774Z,1014.77
2018-10-03T05:54:06.442Z,1014.79
2018-10-03T05:55:07.136Z,1014.81
2018-10-03T05:56:07.805Z,1014.86
2018-10-03T05:57:08.473Z,1014.85
2018-10-03T05:58:09.144Z,1014.90
2018-10-03T05:59:09.804Z,1014.93
2018-10-03T06:00:10.475Z,1014.97
2018-10-03T06:01:11.145Z,1014.97
2018-10-03T06:02:11.806Z,1014.99
2018-10-03T06:03:12.480Z,1014.99
2018-10-03T06:04:13.141Z,1015.03
2018-10-03T06:05:13.804Z,1015.00
2018-10-03T06:06:14.472Z,1015.03
2018-10-03T06:07:15.138Z,1015.11
2018-10-03T06:08:15.806Z,1015.16
2018-10-03T06:09:16.470Z,1015.16
2018-10-03T06:10:17.134Z,1015.15
2018-10-03T06:11:17.802Z,1015.22
2018-10-03T06:12:18.510Z,1015.23
2018-10-03T06:13:19.134Z,1015.22
2018-10-03T06:14:19.796Z,1015.24
2018-10-03T06:15:20.499Z,1015.26
2018-10-03T06:16:21.147Z,1015.27
2018-10-03T06:17:21.812Z,1015.29
2018-10-03T06:18:22.477Z,1015.26
2018-10-03T06:19:23.145Z,1015.31
2018-10-03T06:20:23.813Z,1015.32
2018-10-03T06:21:24.482Z,1015.35
2018-10-03T06:22:25.146Z,1015.36
2018-10-03T06:23:25.811Z,1015.37
2018-10-03T06:24:26.479Z,1015.35
2018-10-03T06:25:27.147Z,1015.37
2018-10-03T06:26:27.861Z,1015.36
2018-10-03T06:27:28.476Z,1015.37
2018-10-03T06:28:29.142Z,1015.40
2018-10-03T06:29:29.808Z,1015.43
2018-10-03T06:30:30.481Z,1015.42
2018-10-03T06:31:31.151Z,1015.44
2018-10-03T06:32:31.814Z,1015.50
2018-10-03T06:33:32.525Z,1015.54
2018-10-03T06:34:33.140Z,1015.55
2018-10-03T06:35:33.803Z,1015.62
2018-10-03T06:36:34.468Z,1015.62
2018-10-03T06:37:35.136Z,1015.63
2018-10-03T06:38:35.797Z,1015.72
2018-10-03T06:39:36.464Z,1015.70
2018-10-03T06:40:37.136Z,1015.80
2018-10-03T06:41:37.799Z,1015.84
2018-10-03T06:42:38.474Z,1015.82
2018-10-03T06:43:39.137Z,1015.80
2018-10-03T06:44:39.898Z,1015.84
2018-10-03T06:45:40.626Z,1015.87
2018-10-03T06:46:41.236Z,1015.89
2018-10-03T06:47:41.898Z,1015.90
2018-10-03T06:48:42.567Z,1015.92
2018-10-03T06:49:43.230Z,1015.98
2018-10-03T06:50:43.898Z,1016.04
2018-10-03T06:51:44.562Z,1016.04
2018-10-03T06:52:45.232Z,1016.10
2018-10-03T06:53:45.890Z,1016.11
2018-10-03T06:54:46.580Z,1016.19
2018-10-03T06:55:47.240Z,1016.19
2018-10-03T06:56:47.940Z,1016.24
2018-10-03T06:57:48.605Z,1016.27
2018-10-03T06:58:49.282Z,1016.27
2018-10-03T06:59:49.947Z,1016.31
2018-10-03T07:00:50.614Z,1016.29
2018-10-03T07:01:51.281Z,1016.34
2018-10-03T07:02:51.947Z,1016.31
2018-10-03T07:03:52.607Z,1016.33
2018-10-03T07:04:53.275Z,1016.37
2018-10-03T07:05:53.962Z,1016.38
2018-10-03T07:06:54.605Z,1016.44
2018-10-03T07:07:55.271Z,1016.42
2018-10-03T07:08:55.934Z,1016.44
2018-10-03T07:09:56.602Z,1016.48
2018-10-03T07:10:57.272Z,1016.52
2018-10-03T07:11:57.961Z,1016.57
2018-10-03T07:12:58.618Z,1016.55
2018-10-03T07:13:59.288Z,1016.59
2018-10-03T07:14:59.944Z,1016.60
2018-10-03T07:16:00.609Z,1016.62
2018-10-03T07:17:01.275Z,1016.65
2018-10-03T07:18:01.942Z,1016.68
2018-10-03T07:19:02.613Z,1016.67
2018-10-03T07:20:03.319Z,1016.68
2018-10-03T07:21:03.948Z,1016.69
2018-10-03T07:22:04.619Z,1016.68
2018-10-03T07:23:05.279Z,1016.71
2018-10-03T07:24:05.952Z,1016.74
2018-10-03T07:25:06.617Z,1016.73
2018-10-03T07:26:07.321Z,1016.76
2018-10-03T07:27:07.951Z,1016.80
2018-10-03T07:28:08.617Z,1016.76
2018-10-03T07:29:09.283Z,1016.80
2018-10-03T07:30:09.946Z,1016.82
2018-10-03T07:31:10.620Z,1016.84
2018-10-03T07:32:11.323Z,1016.82
2018-10-03T07:33:11.989Z,1016.81
2018-10-03T07:34:12.654Z,1016.83
2018-10-03T07:35:13.321Z,1016.84
2018-10-03T07:36:13.988Z,1016.90
2018-10-03T07:37:14.669Z,1016.88
2018-10-03T07:38:15.340Z,1016.90
2018-10-03T07:39:16.002Z,1016.94
2018-10-03T07:40:16.666Z,1016.96
2018-10-03T07:41:17.327Z,1016.97
2018-10-03T07:42:17.996Z,1017.00
2018-10-03T07:43:18.669Z,1017.01
2018-10-03T07:44:19.341Z,1017.04
2018-10-03T07:45:20.403Z,1016.99
2018-10-03T07:46:21.076Z,1017.00
2018-10-03T07:47:21.732Z,1017.03
2018-10-03T07:48:22.395Z,1017.06
2018-10-03T07:49:23.063Z,1017.10
2018-10-03T07:50:23.726Z,1017.09
2018-10-03T07:51:24.388Z,1017.11
2018-10-03T07:52:25.042Z,1017.16
2018-10-03T07:53:25.737Z,1017.15
2018-10-03T07:54:26.383Z,1017.26
2018-10-03T07:55:27.044Z,1017.15
2018-10-03T07:56:27.708Z,1017.16
2018-10-03T07:57:28.371Z,1017.21
2018-10-03T07:58:29.059Z,1017.25
2018-10-03T07:59:29.728Z,1017.21
2018-10-03T08:00:30.394Z,1017.24
2018-10-03T08:01:31.072Z,1017.20
2018-10-03T08:02:31.731Z,1017.23
2018-10-03T08:03:32.396Z,1017.21
2018-10-03T08:04:33.065Z,1017.18
2018-10-03T08:05:33.728Z,1017.25
2018-10-03T08:06:34.396Z,1017.22
2018-10-03T08:07:35.066Z,1017.27
2018-10-03T08:08:35.719Z,1017.25
2018-10-03T08:09:36.391Z,1017.28
2018-10-03T08:10:37.058Z,1017.31
2018-10-03T08:11:37.727Z,1017.35
2018-10-03T08:12:38.404Z,1017.34
2018-10-03T08:13:39.072Z,1017.43
2018-10-03T08:14:39.734Z,1017.45
2018-10-03T08:15:40.398Z,1017.47
2018-10-03T08:16:41.068Z,1017.50
2018-10-03T08:17:41.735Z,1017.52
2018-10-03T08:18:42.399Z,1017.53
2018-10-03T08:19:43.066Z,1017.54
2018-10-03T08:20:43.735Z,1017.57
2018-10-03T08:21:44.398Z,1017.54
2018-10-03T08:22:45.071Z,1017.58
2018-10-03T08:23:45.732Z,1017.59
2018-10-03T08:24:46.402Z,1017.59
2018-10-03T08:25:47.074Z,1017.64
2018-10-03T08:26:47.744Z,1017.65
2018-10-03T08:27:48.410Z,1017.70
2018-10-03T08:28:49.083Z,1017.72
2018-10-03T08:29:49.750Z,1017.68
2018-10-03T08:30:50.411Z,1017.73
2018-10-03T08:31:51.076Z,1017.68
2018-10-03T08:32:51.818Z,1017.72
2018-10-03T08:33:52.411Z,1017.73
2018-10-03T08:34:53.083Z,1017.76
2018-10-03T08:35:53.748Z,1017.71
2018-10-03T08:36:54.422Z,1017.74
2018-10-03T08:37:55.098Z,1017.75
2018-10-03T08:38:55.752Z,1017.76
2018-10-03T08:39:56.423Z,1017.75
2018-10-03T08:40:57.088Z,1017.77
2018-10-03T08:41:57.754Z,1017.79
2018-10-03T08:42:58.483Z,1017.81
2018-10-03T08:43:59.135Z,1017.76
2018-10-03T08:44:59.760Z,1017.80
2018-10-03T08:46:00.431Z,1017.81
2018-10-03T08:47:01.090Z,1017.81
2018-10-03T08:48:01.758Z,1017.83
2018-10-03T08:49:02.426Z,1017.79
2018-10-03T08:50:03.091Z,1017.83
2018-10-03T08:51:03.760Z,1017.84
2018-10-03T08:52:04.500Z,1017.91
2018-10-03T08:53:05.089Z,1017.93
2018-10-03T08:54:05.767Z,1017.96
2018-10-03T08:55:06.427Z,1017.97
2018-10-03T08:56:07.095Z,1017.99
2018-10-03T08:57:07.761Z,1017.96
2018-10-03T08:58:08.552Z,1018.01
2018-10-03T08:59:09.101Z,1017.96
2018-10-03T09:00:09.767Z,1017.94
2018-10-03T09:01:10.433Z,1017.98
2018-10-03T09:02:11.158Z,1018.00
2018-10-03T09:03:11.763Z,1018.01
2018-10-03T09:04:12.426Z,1018.03
2018-10-03T09:05:13.095Z,1018.01
2018-10-03T09:06:13.762Z,1018.03
2018-10-03T09:07:14.432Z,1018.02
2018-10-03T09:08:15.099Z,1018.03
2018-10-03T09:09:15.764Z,1018.06
2018-10-03T09:10:16.422Z,1018.06
2018-10-03T09:11:17.087Z,1018.07
2018-10-03T09:12:17.753Z,1018.12
2018-10-03T09:13:18.433Z,1018.15
2018-10-03T09:14:19.087Z,1018.13
2018-10-03T09:15:19.757Z,1018.13
2018-10-03T09:16:20.431Z,1018.24
2018-10-03T09:17:21.095Z,1018.27
2018-10-03T09:18:21.759Z,1018.23
2018-10-03T09:19:22.421Z,1018.30
2018-10-03T09:20:23.091Z,1018.28
2018-10-03T09:21:23.818Z,1018.28
2018-10-03T09:22:24.422Z,1018.29
2018-10-03T09:23:25.083Z,1018.35
2018-10-03T09:24:25.751Z,1018.37
2018-10-03T09:25:26.445Z,1018.38
2018-10-03T09:26:27.112Z,1018.40
2018-10-03T09:27:27.775Z,1018.38
2018-10-03T09:28:28.528Z,1018.46
2018-10-03T09:29:29.135Z,1018.47
2018-10-03T09:30:29.812Z,1018.49
2018-10-03T09:31:30.483Z,1018.56
2018-10-03T09:32:31.139Z,1018.58
2018-10-03T09:33:31.803Z,1018.59
2018-10-03T09:34:32.475Z,1018.56
2018-10-03T09:35:33.170Z,1018.50
2018-10-03T09:36:33.833Z,1018.51
2018-10-03T09:37:34.503Z,1018.53
2018-10-03T09:38:35.172Z,1018.54
2018-10-03T09:39:35.912Z,1018.52
2018-10-03T09:40:36.515Z,1018.58
2018-10-03T09:41:37.178Z,1018.57
2018-10-03T09:42:37.837Z,1018.57
2018-10-03T09:43:38.542Z,1018.58
2018-10-03T09:44:39.260Z,1018.60
2018-10-03T09:45:39.840Z,1018.61
2018-10-03T09:46:40.503Z,1018.65
2018-10-03T09:47:41.171Z,1018.67
2018-10-03T09:48:41.846Z,1018.71
2018-10-03T09:49:42.512Z,1018.76
2018-10-03T09:50:43.180Z,1018.74
2018-10-03T09:51:43.846Z,1018.74
2018-10-03T09:52:44.529Z,1018.78
2018-10-03T09:53:45.177Z,1018.82
2018-10-03T09:54:46.150Z,1018.78
2018-10-03T09:55:46.817Z,1018.73
2018-10-03T09:56:47.488Z,1018.76
2018-10-03T09:57:48.154Z,1018.70
2018-10-03T09:58:48.817Z,1018.80
2018-10-03T09:59:49.990Z,1018.75
2018-10-03T10:00:50.866Z,1018.75
2018-10-03T10:01:51.530Z,1018.74
2018-10-03T10:02:52.191Z,1018.74
2018-10-03T10:03:52.855Z,1018.75
2018-10-03T10:04:53.517Z,1018.77
2018-10-03T10:05:54.189Z,1018.80
2018-10-03T10:06:54.848Z,1018.77
2018-10-03T10:07:55.516Z,1018.83
2018-10-03T10:08:56.181Z,1018.80
2018-10-03T10:09:56.852Z,1018.83
2018-10-03T10:10:57.641Z,1018.78
2018-10-03T10:11:58.267Z,1018.84
2018-10-03T10:12:58.933Z,1018.85
2018-10-03T10:13:59.594Z,1018.86
2018-10-03T10:15:00.260Z,1018.86
2018-10-03T10:16:00.925Z,1018.87
2018-10-03T10:17:01.587Z,1018.90
2018-10-03T10:18:02.309Z,1018.84
2018-10-03T10:19:02.923Z,1018.81
2018-10-03T10:20:03.588Z,1018.77
2018-10-03T10:21:04.250Z,1018.82
2018-10-03T10:22:04.915Z,1018.82
2018-10-03T10:23:05.580Z,1018.87
2018-10-03T10:24:06.247Z,1018.88
2018-10-03T10:25:06.916Z,1018.86
2018-10-03T10:26:07.581Z,1018.86
2018-10-03T10:27:08.247Z,1018.86
2018-10-03T10:28:08.909Z,1018.86
2018-10-03T10:29:09.576Z,1018.88
2018-10-03T10:30:10.241Z,1018.88
2018-10-03T10:31:10.901Z,1018.89
2018-10-03T10:32:11.624Z,1018.91
2018-10-03T10:33:12.408Z,1018.90
2018-10-03T10:34:12.991Z,1018.95
2018-10-03T10:35:13.657Z,1018.93
2018-10-03T10:36:14.393Z,1018.92
2018-10-03T10:37:14.862Z,1018.95
2018-10-03T10:38:15.645Z,1018.97
2018-10-03T10:39:16.310Z,1018.97
2018-10-03T10:40:17.047Z,1019.00
2018-10-03T10:41:17.790Z,1018.98
2018-10-03T10:42:18.314Z,1019.06
2018-10-03T10:43:18.998Z,1019.03
2018-10-03T10:44:19.994Z,1019.05
2018-10-03T10:45:20.662Z,1019.06
2018-10-03T10:46:21.346Z,1018.99
2018-10-03T10:47:22.010Z,1019.01
2018-10-03T10:48:22.674Z,1019.08
2018-10-03T10:49:23.341Z,1019.10
2018-10-03T10:50:24.098Z,1019.13
2018-10-03T10:51:24.677Z,1019.08
2018-10-03T10:52:25.341Z,1019.10
2018-10-03T10:53:26.008Z,1019.06
2018-10-03T10:54:26.708Z,1019.04
2018-10-03T10:55:27.359Z,1018.99
2018-10-03T10:56:28.027Z,1019.01
2018-10-03T10:57:28.697Z,1019.00
2018-10-03T10:58:29.370Z,1019.01
2018-10-03T10:59:29.942Z,1019.02
2018-10-03T11:00:30.617Z,1019.04
2018-10-03T11:01:31.286Z,1019.06
2018-10-03T11:02:31.948Z,1019.09
2018-10-03T11:03:32.615Z,1019.09
2018-10-03T11:04:33.636Z,1019.10
2018-10-03T11:05:34.302Z,1019.09
2018-10-03T11:06:35.026Z,1019.06
2018-10-03T11:07:35.652Z,1019.12
2018-10-03T11:08:36.313Z,1019.10
2018-10-03T11:09:36.981Z,1019.11
2018-10-03T11:10:37.650Z,1019.13
2018-10-03T11:11:38.317Z,1019.17
2018-10-03T11:12:38.979Z,1019.14
2018-10-03T11:13:39.645Z,1019.20
2018-10-03T11:14:40.295Z,1019.21
2018-10-03T11:15:41.012Z,1019.19
2018-10-03T11:16:41.630Z,1019.17
2018-10-03T11:17:42.302Z,1019.18
2018-10-03T11:18:42.956Z,1019.21
2018-10-03T11:19:43.638Z,1019.25
2018-10-03T11:20:44.311Z,1019.22
2018-10-03T11:21:44.977Z,1019.21
2018-10-03T11:22:45.638Z,1019.30
2018-10-03T11:23:46.436Z,1019.24
2018-10-03T11:24:47.200Z,1019.28
2018-10-03T11:25:47.644Z,1019.33
2018-10-03T11:26:48.306Z,1019.33
2018-10-03T11:27:48.976Z,1019.27
2018-10-03T11:28:49.644Z,1019.31
2018-10-03T11:29:50.320Z,1019.37
2018-10-03T11:30:50.989Z,1019.34
2018-10-03T11:31:51.654Z,1019.32
2018-10-03T11:32:52.324Z,1019.30
2018-10-03T11:33:52.984Z,1019.32
2018-10-03T11:34:53.725Z,1019.26
2018-10-03T11:35:54.311Z,1019.29
2018-10-03T11:36:54.960Z,1019.31
2018-10-03T11:37:55.937Z,1019.29
2018-10-03T11:38:56.601Z,1019.26
2018-10-03T11:39:57.266Z,1019.27
2018-10-03T11:40:57.932Z,1019.28
2018-10-03T11:41:58.601Z,1019.25
2018-10-03T11:42:59.261Z,1019.27
2018-10-03T11:43:59.949Z,1019.24
2018-10-03T11:45:00.606Z,1019.27
2018-10-03T11:46:01.272Z,1019.24
2018-10-03T11:47:01.941Z,1019.22
2018-10-03T11:48:02.716Z,1019.26
2018-10-03T11:49:03.385Z,1019.20
2018-10-03T11:50:04.055Z,1019.16
2018-10-03T11:51:04.723Z,1019.14
2018-10-03T11:52:05.386Z,1019.13
2018-10-03T11:53:06.055Z,1019.12
2018-10-03T11:54:06.719Z,1019.16
2018-10-03T11:55:07.387Z,1019.17
2018-10-03T11:56:08.051Z,1019.17
2018-10-03T11:57:08.866Z,1019.14
2018-10-03T11:58:09.385Z,1019.12
2018-10-03T11:59:10.054Z,1019.09
2018-10-03T12:00:10.715Z,1019.15
2018-10-03T12:01:11.384Z,1019.12
2018-10-03T12:02:12.057Z,1019.14
2018-10-03T12:03:12.788Z,1019.12
2018-10-03T12:04:13.386Z,1019.21
2018-10-03T12:05:14.052Z,1019.25
2018-10-03T12:06:14.717Z,1019.24
2018-10-03T12:07:15.381Z,1019.21
2018-10-03T12:08:16.051Z,1019.27
2018-10-03T12:09:16.782Z,1019.33
2018-10-03T12:10:17.381Z,1019.26
2018-10-03T12:11:18.043Z,1019.29
2018-10-03T12:12:18.708Z,1019.32
2018-10-03T12:13:19.399Z,1019.35